createdAt,value
2023-02-19T00:01:28.890Z,82.57
2023-02-19T00:03:58.011Z,82.44
2023-02-19T00:06:26.345Z,82.59
2023-02-19T00:08:53.420Z,82.34
2023-02-19T00:11:22.879Z,82.56
2023-02-19T00:13:52.222Z,82.80
2023-02-19T00:16:24.577Z,82.55
2023-02-19T00:18:51.880Z,82.49
2023-02-19T00:21:19.416Z,82.90
2023-02-19T00:23:54.196Z,82.97
2023-02-19T00:26:21.621Z,82.94
2023-02-19T00:28:49.972Z,82.92
2023-02-19T00:31:18.878Z,82.94
2023-02-19T00:33:46.757Z,82.87
2023-02-19T00:36:14.631Z,82.55
2023-02-19T00:38:42.539Z,82.85
2023-02-19T00:41:19.398Z,82.85
2023-02-19T00:43:50.086Z,82.89
2023-02-19T00:46:22.420Z,82.64
2023-02-19T00:48:49.531Z,82.79
2023-02-19T00:51:16.959Z,83.13
2023-02-19T00:53:43.817Z,82.79
2023-02-19T00:56:10.614Z,82.96
2023-02-19T00:58:37.382Z,82.84
2023-02-19T01:01:06.481Z,82.95
2023-02-19T01:03:34.577Z,83.06
2023-02-19T01:06:02.235Z,82.74
2023-02-19T01:08:31.074Z,83.27
2023-02-19T01:10:58.448Z,83.10
2023-02-19T01:13:25.538Z,82.81
2023-02-19T01:15:52.487Z,82.88
2023-02-19T01:18:19.287Z,83.36
2023-02-19T01:20:46.924Z,83.16
2023-02-19T01:23:14.196Z,82.93
2023-02-19T01:25:42.105Z,82.83
2023-02-19T01:28:09.398Z,83.13
2023-02-19T01:30:37.194Z,83.05
2023-02-19T01:33:05.611Z,83.00
2023-02-19T01:35:32.680Z,83.21
2023-02-19T01:37:59.437Z,83.67
2023-02-19T01:40:26.857Z,83.25
2023-02-19T01:42:53.660Z,83.62
2023-02-19T01:45:30.331Z,83.17
2023-02-19T01:48:07.076Z,83.41
2023-02-19T01:50:38.989Z,83.70
2023-02-19T01:53:09.543Z,83.29
2023-02-19T01:55:36.366Z,83.62
2023-02-19T01:58:04.375Z,83.51
2023-02-19T02:00:33.711Z,83.52
2023-02-19T02:03:01.432Z,83.90
2023-02-19T02:06:07.188Z,83.68
2023-02-19T02:08:52.899Z,83.68
2023-02-19T02:11:20.559Z,83.67
2023-02-19T02:13:47.309Z,83.51
2023-02-19T02:16:29.087Z,83.59
2023-02-19T02:19:25.058Z,83.32
2023-02-19T02:22:00.260Z,83.27
2023-02-19T02:25:14.828Z,83.37
2023-02-19T02:27:49.358Z,83.56
2023-02-19T02:30:37.548Z,83.41
2023-02-19T02:33:30.567Z,83.18
2023-02-19T02:36:03.648Z,81.98
2023-02-19T02:38:34.604Z,82.67
2023-02-19T02:41:02.607Z,82.48
2023-02-19T02:43:29.360Z,82.40
2023-02-19T02:45:56.293Z,82.71
2023-02-19T02:48:45.786Z,82.52
2023-02-19T02:51:21.072Z,82.79
2023-02-19T02:54:33.846Z,82.59
2023-02-19T02:57:01.834Z,82.89
2023-02-19T02:59:33.522Z,83.22
2023-02-19T03:02:11.218Z,82.91
2023-02-19T03:05:33.954Z,82.76
2023-02-19T03:08:04.575Z,82.91
2023-02-19T03:10:36.214Z,82.82
2023-02-19T03:13:26.019Z,82.94
2023-02-19T03:16:17.485Z,82.68
2023-02-19T03:19:06.809Z,82.55
2023-02-19T03:21:36.331Z,82.43
2023-02-19T03:24:23.048Z,82.84
2023-02-19T03:26:53.998Z,82.67
2023-02-19T03:29:26.400Z,83.11
2023-02-19T03:32:13.075Z,82.76
2023-02-19T03:34:49.247Z,82.89
2023-02-19T03:37:18.931Z,82.30
2023-02-19T03:39:45.775Z,82.43
2023-02-19T03:42:24.972Z,82.78
2023-02-19T03:45:16.336Z,82.70
2023-02-19T03:47:49.973Z,82.75
2023-02-19T03:50:48.257Z,82.79
2023-02-19T03:53:20.487Z,82.88
2023-02-19T03:56:08.327Z,82.92
2023-02-19T03:58:40.487Z,82.76
2023-02-19T04:01:19.786Z,82.29
2023-02-19T04:03:55.636Z,82.19
2023-02-19T04:06:32.026Z,82.51
2023-02-19T04:09:03.036Z,82.09
2023-02-19T04:11:31.514Z,82.36
2023-02-19T04:14:13.136Z,82.16
2023-02-19T04:16:42.726Z,82.53
2023-02-19T04:19:13.877Z,82.77
2023-02-19T04:21:42.312Z,82.42
2023-02-19T04:24:25.260Z,82.36
2023-02-19T04:26:53.237Z,82.83
2023-02-19T04:29:19.888Z,82.73
2023-02-19T04:31:46.651Z,82.18
2023-02-19T04:34:13.557Z,82.52
2023-02-19T04:36:40.346Z,82.51
2023-02-19T04:39:08.264Z,82.76
2023-02-19T04:41:35.202Z,82.30
2023-02-19T04:44:01.864Z,82.31
2023-02-19T04:46:28.788Z,82.50
2023-02-19T04:48:56.164Z,82.53
2023-02-19T04:51:23.796Z,82.09
2023-02-19T04:53:50.514Z,82.71
2023-02-19T04:56:18.326Z,82.29
2023-02-19T04:58:45.611Z,82.51
2023-02-19T05:01:12.996Z,82.54
2023-02-19T05:03:40.472Z,82.17
2023-02-19T05:06:09.826Z,82.74
2023-02-19T05:08:36.722Z,82.44
2023-02-19T05:11:05.921Z,82.69
2023-02-19T05:13:33.018Z,82.46
2023-02-19T05:16:05.742Z,82.49
2023-02-19T05:18:34.750Z,82.12
2023-02-19T05:21:02.035Z,82.41
2023-02-19T05:23:29.269Z,82.02
2023-02-19T05:25:56.455Z,81.76
2023-02-19T05:28:28.710Z,82.10
2023-02-19T05:30:57.112Z,82.22
2023-02-19T05:33:25.981Z,82.27
2023-02-19T05:35:55.335Z,82.25
2023-02-19T05:38:23.001Z,82.08
2023-02-19T05:40:50.568Z,82.29
2023-02-19T05:43:17.587Z,81.75
2023-02-19T05:45:44.455Z,81.98
2023-02-19T05:48:11.916Z,82.15
2023-02-19T05:50:39.969Z,81.87
2023-02-19T05:53:06.792Z,82.26
2023-02-19T05:55:37.085Z,81.93
2023-02-19T05:58:03.798Z,82.25
2023-02-19T06:00:32.230Z,82.27
2023-02-19T06:02:59.015Z,82.11
2023-02-19T06:05:25.713Z,81.75
2023-02-19T06:07:52.626Z,81.81
2023-02-19T06:10:19.737Z,82.40
2023-02-19T06:12:46.437Z,82.54
2023-02-19T06:15:13.116Z,82.19
2023-02-19T06:17:40.405Z,82.35
2023-02-19T06:20:07.333Z,82.55
2023-02-19T06:22:34.188Z,82.46
2023-02-19T06:25:00.898Z,82.48
2023-02-19T06:27:28.209Z,82.45
2023-02-19T06:29:54.964Z,82.38
2023-02-19T06:32:22.404Z,82.43
2023-02-19T06:34:49.132Z,82.17
2023-02-19T06:37:15.860Z,82.31
2023-02-19T06:39:44.016Z,82.38
2023-02-19T06:42:10.740Z,82.20
2023-02-19T06:44:37.534Z,82.05
2023-02-19T06:47:04.736Z,81.78
2023-02-19T06:49:31.393Z,81.79
2023-02-19T06:51:59.247Z,81.93
2023-02-19T06:54:26.403Z,82.05
2023-02-19T06:56:53.247Z,81.97
2023-02-19T06:59:19.887Z,81.90
2023-02-19T07:01:46.721Z,81.70
2023-02-19T07:04:13.501Z,81.44
2023-02-19T07:06:40.309Z,81.78
2023-02-19T07:09:08.621Z,81.39
2023-02-19T07:11:38.183Z,81.27
2023-02-19T07:14:10.217Z,81.56
2023-02-19T07:16:37.537Z,81.41
2023-02-19T07:19:04.376Z,81.71
2023-02-19T07:21:37.913Z,81.36
2023-02-19T07:24:05.837Z,81.81
2023-02-19T07:26:32.557Z,81.47
2023-02-19T07:28:59.510Z,81.38
2023-02-19T07:31:26.455Z,81.25
2023-02-19T07:33:53.474Z,81.59
2023-02-19T07:36:22.827Z,81.56
2023-02-19T07:38:57.436Z,81.14
2023-02-19T07:41:25.017Z,80.98
2023-02-19T07:43:51.717Z,81.34
2023-02-19T07:46:18.422Z,81.40
2023-02-19T07:48:45.791Z,81.35
2023-02-19T07:51:18.772Z,80.94
2023-02-19T07:53:47.041Z,81.23
2023-02-19T07:56:14.253Z,81.30
2023-02-19T07:58:41.546Z,81.30
2023-02-19T08:01:16.064Z,81.42
2023-02-19T08:03:43.951Z,81.16
2023-02-19T08:06:11.758Z,81.25
2023-02-19T08:08:40.043Z,81.21
2023-02-19T08:11:26.393Z,80.92
2023-02-19T08:13:53.776Z,80.57
2023-02-19T08:16:33.074Z,80.85
2023-02-19T08:19:00.503Z,80.91
2023-02-19T08:21:27.189Z,80.79
2023-02-19T08:23:53.817Z,80.78
2023-02-19T08:26:20.796Z,80.91
2023-02-19T08:28:48.811Z,81.16
2023-02-19T08:31:16.238Z,81.22
2023-02-19T08:33:43.231Z,80.76
2023-02-19T08:36:11.667Z,81.26
2023-02-19T08:38:38.578Z,80.78
2023-02-19T08:41:11.781Z,80.71
2023-02-19T11:17:39.379Z,73.78
2023-02-19T11:20:15.072Z,73.41
2023-02-19T11:22:47.064Z,73.73
2023-02-19T11:25:14.608Z,73.36
2023-02-19T11:28:07.584Z,72.46
2023-02-19T11:30:36.617Z,72.29
2023-02-19T11:33:24.622Z,71.99
2023-02-19T11:36:17.994Z,71.64
2023-02-19T11:38:45.165Z,71.25
2023-02-19T11:41:39.872Z,71.33
2023-02-19T11:44:06.741Z,71.40
2023-02-19T11:46:49.725Z,71.28
2023-02-19T11:49:34.606Z,71.11
2023-02-19T11:52:29.381Z,70.97
2023-02-19T11:55:03.966Z,70.86
2023-02-19T11:57:44.555Z,70.58
2023-02-19T12:00:27.581Z,71.20
2023-02-19T12:03:29.575Z,70.66
2023-02-19T12:06:22.313Z,70.07
2023-02-19T12:09:10.881Z,69.95
2023-02-19T12:12:14.987Z,69.96
2023-02-19T12:14:58.902Z,69.64
2023-02-19T12:17:56.222Z,69.10
2023-02-19T12:20:40.187Z,68.96
2023-02-19T12:23:07.152Z,68.91
2023-02-19T12:25:58.445Z,68.68
2023-02-19T12:28:25.456Z,68.06
2023-02-19T12:31:35.180Z,66.60
2023-02-19T12:34:20.580Z,67.36
2023-02-19T12:37:06.165Z,66.11
2023-02-19T12:39:44.223Z,66.83
2023-02-19T12:42:47.948Z,66.15
2023-02-19T12:45:25.884Z,65.51
2023-02-19T12:48:01.588Z,65.66
2023-02-19T12:50:34.557Z,65.81
2023-02-19T12:53:40.045Z,65.84
2023-02-19T12:56:14.803Z,65.68
2023-02-19T12:58:51.073Z,65.38
2023-02-19T13:01:31.881Z,65.26
2023-02-19T13:04:16.990Z,65.24
2023-02-19T13:06:53.857Z,65.71
2023-02-19T13:09:29.322Z,65.77
2023-02-19T13:12:04.809Z,65.64
2023-02-19T13:14:40.263Z,65.59
2023-02-19T13:17:33.119Z,65.90
2023-02-19T13:20:15.228Z,65.87
2023-02-19T13:23:26.086Z,65.81
2023-02-19T13:26:21.006Z,66.31
2023-02-19T13:29:09.164Z,66.41
2023-02-19T13:31:58.083Z,66.10
2023-02-19T13:34:47.946Z,65.81
2023-02-19T13:37:16.396Z,65.61
2023-02-19T13:39:51.396Z,65.96
2023-02-19T13:42:29.035Z,65.95
2023-02-19T13:44:57.987Z,65.83
2023-02-19T13:48:04.554Z,65.42
2023-02-19T13:50:34.241Z,65.82
2023-02-19T13:53:22.039Z,65.31
2023-02-19T13:55:52.548Z,65.29
2023-02-19T13:58:39.720Z,64.96
2023-02-19T14:01:10.276Z,65.42
2023-02-19T14:03:37.133Z,65.30
2023-02-19T14:06:06.846Z,64.90
2023-02-19T14:08:58.769Z,64.79
2023-02-19T14:12:03.737Z,64.44
2023-02-19T14:14:37.784Z,64.37
2023-02-19T14:17:26.946Z,64.03
2023-02-19T14:20:21.364Z,64.07
2023-02-19T14:23:01.716Z,63.92
2023-02-19T14:25:49.134Z,63.57
2023-02-19T14:28:45.008Z,63.98
2023-02-19T14:31:29.319Z,63.61
2023-02-19T14:34:00.517Z,63.83
2023-02-19T14:36:45.269Z,63.90
2023-02-19T14:39:24.611Z,63.93
2023-02-19T14:41:54.994Z,63.82
2023-02-19T14:44:52.883Z,63.93
2023-02-19T14:47:26.024Z,63.95
2023-02-19T14:50:02.641Z,63.75
2023-02-19T14:52:46.608Z,64.11
2023-02-19T14:55:29.191Z,63.75
2023-02-19T14:57:59.885Z,64.16
2023-02-19T15:00:27.085Z,64.46
2023-02-19T15:02:56.857Z,64.01
2023-02-19T15:05:45.027Z,64.34
2023-02-19T15:08:18.560Z,64.70
2023-02-19T15:10:45.908Z,64.77
2023-02-19T15:13:24.134Z,64.79
2023-02-19T15:15:51.222Z,64.57
2023-02-19T15:18:21.374Z,64.62
2023-02-19T15:20:48.864Z,64.89
2023-02-19T15:23:22.604Z,64.59
2023-02-19T15:25:49.996Z,64.78
2023-02-19T15:28:24.235Z,65.25
2023-02-19T15:31:06.261Z,64.76
2023-02-19T15:33:33.730Z,64.81
2023-02-19T15:36:04.816Z,64.95
2023-02-19T15:38:33.232Z,64.92
2023-02-19T15:41:00.485Z,64.99
2023-02-19T15:43:44.359Z,65.37
2023-02-19T15:46:20.793Z,64.93
2023-02-19T15:48:59.785Z,65.54
2023-02-19T15:51:43.589Z,65.27
2023-02-19T15:54:29.849Z,65.13
2023-02-19T15:57:03.350Z,65.07
2023-02-19T15:59:39.070Z,65.35
2023-02-19T16:02:13.291Z,65.70
2023-02-19T16:04:45.123Z,65.63
2023-02-19T16:07:24.971Z,65.36
2023-02-19T16:10:18.026Z,65.67
2023-02-19T16:12:54.971Z,65.51
2023-02-19T16:15:21.881Z,65.72
2023-02-19T16:17:48.906Z,65.98
2023-02-19T16:20:34.832Z,66.16
2023-02-19T16:23:04.446Z,66.67
2023-02-19T16:25:41.803Z,66.37
2023-02-19T16:28:24.290Z,66.51
2023-02-19T16:31:04.443Z,66.91
2023-02-19T16:33:37.030Z,66.76
2023-02-19T16:36:21.436Z,67.33
2023-02-19T16:39:14.846Z,67.30
2023-02-19T16:42:02.359Z,67.25
2023-02-19T16:44:31.013Z,67.17
2023-02-19T16:47:12.559Z,67.69
2023-02-19T16:49:42.581Z,67.76
2023-02-19T16:52:14.451Z,67.73
2023-02-19T16:54:41.439Z,68.08
2023-02-19T16:57:08.122Z,67.70
2023-02-19T16:59:35.020Z,67.83
2023-02-19T17:02:05.653Z,68.14
2023-02-19T17:04:32.212Z,68.17
2023-02-19T17:06:59.307Z,68.20
2023-02-19T17:09:26.027Z,68.10
2023-02-19T17:11:52.718Z,68.61
2023-02-19T17:14:19.559Z,68.54
2023-02-19T17:16:46.969Z,68.53
2023-02-19T17:19:18.730Z,68.44
2023-02-19T17:21:46.880Z,68.75
2023-02-19T17:24:14.778Z,69.01
2023-02-19T17:26:41.954Z,68.58
2023-02-19T17:29:14.210Z,68.89
2023-02-19T17:31:41.019Z,69.46
2023-02-19T17:34:07.883Z,69.07
2023-02-19T17:36:34.783Z,69.42
2023-02-19T17:39:03.297Z,69.39
2023-02-19T17:41:30.009Z,69.21
2023-02-19T17:43:56.848Z,69.29
2023-02-19T17:46:26.267Z,69.83
2023-02-19T17:48:54.200Z,69.71
2023-02-19T17:51:21.505Z,69.59
2023-02-19T17:53:48.296Z,69.64
2023-02-19T17:56:25.652Z,69.92
2023-02-19T17:58:53.228Z,70.21
2023-02-19T18:01:20.042Z,69.92
2023-02-19T18:03:46.943Z,70.37
2023-02-19T18:06:13.861Z,70.28
2023-02-19T18:08:47.052Z,70.72
2023-02-19T18:11:14.001Z,70.84
2023-02-19T18:13:40.748Z,70.44
2023-02-19T18:16:07.555Z,70.50
2023-02-19T18:18:34.264Z,70.91
2023-02-19T18:21:01.025Z,70.62
2023-02-19T18:23:27.762Z,70.82
2023-02-19T18:25:54.546Z,71.04
2023-02-19T18:28:21.249Z,71.33
2023-02-19T18:30:48.531Z,71.11
2023-02-19T18:33:15.586Z,71.62
2023-02-19T18:35:42.273Z,71.15
2023-02-19T18:38:08.988Z,71.70
2023-02-19T18:40:35.715Z,71.40
2023-02-19T18:43:02.415Z,71.85
2023-02-19T18:45:29.771Z,71.68
2023-02-19T18:47:56.599Z,71.58
2023-02-19T18:50:23.487Z,71.52
2023-02-19T18:52:50.271Z,71.54
2023-02-19T18:55:17.026Z,72.14
2023-02-19T18:57:44.424Z,71.97
2023-02-19T19:00:16.731Z,72.19
2023-02-19T19:02:49.683Z,71.88
2023-02-19T19:05:22.851Z,72.28
2023-02-19T19:07:54.448Z,72.14
2023-02-19T19:10:21.483Z,72.52
2023-02-19T19:12:48.879Z,72.23
2023-02-19T19:15:18.464Z,72.42
2023-02-19T19:17:46.686Z,72.48
2023-02-19T19:20:14.703Z,72.62
2023-02-19T19:22:41.327Z,72.53
2023-02-19T19:25:08.953Z,72.34
2023-02-19T19:27:35.903Z,72.83
2023-02-19T19:30:04.767Z,72.66
2023-02-19T19:32:31.583Z,72.83
2023-02-19T19:34:58.423Z,72.72
2023-02-19T19:37:28.094Z,72.90
2023-02-19T19:39:56.284Z,72.91
2023-02-19T19:42:23.340Z,72.94
2023-02-19T19:44:50.163Z,73.28
2023-02-19T19:47:17.281Z,72.94
2023-02-19T19:49:47.223Z,73.12
2023-02-19T19:52:14.018Z,73.00
2023-02-19T19:54:42.318Z,72.77
2023-02-19T19:57:10.011Z,72.83
2023-02-19T19:59:39.176Z,73.11
2023-02-19T20:02:07.578Z,73.45
2023-02-19T20:04:34.641Z,73.36
2023-02-19T20:07:02.129Z,73.48
2023-02-19T20:09:29.139Z,73.07
2023-02-19T20:11:56.102Z,73.36
2023-02-19T20:14:24.433Z,73.08
2023-02-19T20:16:51.719Z,73.30
2023-02-19T20:19:20.331Z,73.43
2023-02-19T20:21:49.005Z,73.31
2023-02-19T20:24:17.541Z,73.42
2023-02-19T20:26:44.438Z,73.61
2023-02-19T20:29:11.595Z,73.53
2023-02-19T20:31:38.788Z,73.30
2023-02-19T20:34:05.855Z,73.71
2023-02-19T20:36:32.818Z,73.28
2023-02-19T20:38:59.771Z,73.40
2023-02-19T20:41:26.572Z,73.83
2023-02-19T20:43:53.481Z,73.86
2023-02-19T20:46:20.239Z,73.34
2023-02-19T20:48:47.139Z,73.94
2023-02-19T20:51:13.932Z,73.48
2023-02-19T20:53:41.928Z,73.56
2023-02-19T20:56:09.570Z,73.75
2023-02-19T20:58:36.288Z,73.66
2023-02-19T21:01:03.065Z,73.91
2023-02-19T21:03:30.159Z,73.66
2023-02-19T21:05:56.851Z,73.66
2023-02-19T21:08:23.536Z,73.46
2023-02-19T21:10:50.370Z,73.59
2023-02-19T21:13:17.034Z,73.53
2023-02-19T21:15:43.897Z,73.82
2023-02-19T21:18:10.983Z,73.93
2023-02-19T21:20:37.840Z,73.73
2023-02-19T21:23:04.809Z,73.67
2023-02-19T21:25:33.224Z,73.79
2023-02-19T21:28:00.585Z,73.50
2023-02-19T21:30:27.677Z,73.36
2023-02-19T21:32:54.416Z,73.47
2023-02-19T21:35:21.093Z,73.63
2023-02-19T21:37:48.084Z,73.93
2023-02-19T21:40:15.049Z,73.62
2023-02-19T21:42:41.751Z,73.80
2023-02-19T21:45:08.690Z,73.84
2023-02-19T21:47:35.481Z,73.65
2023-02-19T21:50:02.332Z,74.19
2023-02-19T21:52:31.054Z,74.16
2023-02-19T21:54:58.182Z,74.04
2023-02-19T21:57:25.063Z,74.08
2023-02-19T21:59:51.979Z,74.51
2023-02-19T22:02:22.449Z,74.33
2023-02-19T22:04:53.715Z,74.67
2023-02-19T22:07:21.620Z,74.29
2023-02-19T22:09:49.917Z,74.57
2023-02-19T22:12:18.124Z,74.79
2023-02-19T22:14:45.672Z,74.87
2023-02-19T22:17:12.672Z,75.04
2023-02-19T22:19:39.503Z,75.02
2023-02-19T22:22:06.330Z,75.01
2023-02-19T22:24:33.160Z,74.67
2023-02-19T22:26:59.916Z,75.24
2023-02-19T22:29:26.969Z,75.47
2023-02-19T22:31:55.081Z,75.21
2023-02-19T22:34:22.050Z,75.30
2023-02-19T22:36:49.009Z,75.28
2023-02-19T22:39:25.043Z,75.42
2023-02-19T22:41:52.505Z,75.17
2023-02-19T22:44:19.510Z,75.57
2023-02-19T22:46:52.793Z,75.22
2023-02-19T22:49:20.336Z,75.42
2023-02-19T22:51:50.644Z,75.47
2023-02-19T22:54:17.586Z,75.80
2023-02-19T22:56:44.483Z,75.68
2023-02-19T22:59:11.160Z,75.83
2023-02-19T23:01:37.883Z,75.74
2023-02-19T23:04:04.869Z,76.07
2023-02-19T23:06:34.100Z,75.72
2023-02-19T23:09:10.546Z,76.17
2023-02-19T23:11:39.193Z,76.10
2023-02-19T23:14:07.090Z,75.97
2023-02-19T23:16:36.001Z,75.83
2023-02-19T23:19:08.100Z,76.14
2023-02-19T23:21:35.023Z,75.94
2023-02-19T23:24:01.942Z,76.49
2023-02-19T23:26:28.671Z,76.19
2023-02-19T23:28:55.864Z,76.33
2023-02-19T23:31:23.118Z,76.39
2023-02-19T23:33:50.417Z,76.54
2023-02-19T23:36:17.187Z,76.48
2023-02-19T23:38:45.924Z,76.74
2023-02-19T23:41:15.239Z,76.57
2023-02-19T23:43:42.179Z,76.79
2023-02-19T23:46:09.058Z,76.83
2023-02-19T23:48:35.770Z,76.93
2023-02-19T23:51:02.603Z,77.00
2023-02-19T23:53:29.876Z,76.88
2023-02-19T23:55:56.815Z,76.95
2023-02-19T23:58:23.581Z,77.06
